Terminal Aerodrome Forecast
Issued by NWS

Home | Current Version | Previous Version | Text Only | Print | Product List | Glossary On
Versions: 1 2 3 4 5 6 7 8 9 10 11 12 13 14 15 16
000
FTUS46 KSGX 211700
TAFCRQ
TAF
KCRQ 211731Z 2118/2218 26008KT P6SM FEW015
     FM220200 VRB04KT P6SM SCT012
     FM220600 VRB03KT 6SM HZ BKN009
     FM221500 VRB03KT P6SM SCT010=

USA.gov is the U.S. government's official web portal to all federal, state and local government web resources and services.